Time;durP1;ratioP1;P1;durP2;ratioP2;P2;SDS_P1;SDS_P2;PMS_P1;PMS_P2;Temp;Humidity;BMP_temperature;BMP_pressure;BME280_temperature;BME280_humidity;BME280_pressure;Samples;Min_cycle;Max_cycle;Signal;HPM_P1;HPM_P2
2021/03/08 00:02:42;;;;;;;13.08;8.45;;;;;;;1.44;66.19;98689.80;2198580;80;21150;-85
2021/03/08 00:05:43;;;;;;;13.30;8.48;;;;;;;1.43;66.24;98686.88;2185925;80;21150;-85
2021/03/08 00:08:45;;;;;;;16.90;10.50;;;;;;;1.38;66.39;98686.44;2207428;80;21166;-84
2021/03/08 00:11:47;;;;;;;13.80;9.18;;;;;;;1.34;66.31;98691.48;2204252;80;21749;-84
2021/03/08 00:14:49;;;;;;;15.98;10.23;;;;;;;1.30;66.52;98696.55;2198201;80;21322;-86
2021/03/08 00:17:51;;;;;;;21.17;10.65;;;;;;;1.28;66.74;98700.54;2200852;80;21222;-85
2021/03/08 00:20:52;;;;;;;15.93;9.98;;;;;;;1.29;66.95;98703.94;2209003;80;21325;-85
2021/03/08 00:23:54;;;;;;;14.40;11.10;;;;;;;1.23;67.30;98710.39;2198114;80;21158;-85
2021/03/08 00:26:56;;;;;;;15.00;9.55;;;;;;;1.21;68.29;98698.09;2195043;80;21328;-85
2021/03/08 00:29:58;;;;;;;14.83;10.45;;;;;;;1.14;68.64;98698.21;2207542;80;21720;-84
2021/03/08 00:33:00;;;;;;;16.30;8.93;;;;;;;1.07;68.76;98700.91;2191587;80;21316;-86
2021/03/08 00:36:02;;;;;;;16.37;10.08;;;;;;;1.03;69.69;98696.95;2193817;80;21272;-85
2021/03/08 00:39:04;;;;;;;18.55;11.03;;;;;;;1.03;68.66;98700.81;2199396;80;21605;-85
2021/03/08 00:42:05;;;;;;;13.55;10.63;;;;;;;1.02;69.11;98692.27;2195546;80;21348;-85
2021/03/08 00:45:07;;;;;;;15.88;10.20;;;;;;;1.03;68.70;98700.81;2195825;80;21646;-86
2021/03/08 00:48:09;;;;;;;15.70;10.72;;;;;;;1.05;68.76;98698.45;2201330;80;21646;-87
2021/03/08 00:51:10;;;;;;;14.68;9.83;;;;;;;1.07;69.10;98694.00;2197610;80;21353;-85
2021/03/08 00:54:12;;;;;;;17.30;11.08;;;;;;;1.05;69.12;98688.14;2198029;80;21364;-85
2021/03/08 00:57:14;;;;;;;13.95;9.95;;;;;;;1.05;69.10;98684.75;2192310;80;21150;-84
2021/03/08 01:00:16;;;;;;;14.23;11.20;;;;;;;1.06;69.28;98688.97;2201648;80;21749;-84
2021/03/08 01:03:20;;;;;;;15.53;10.48;;;;;;;1.06;69.37;98688.49;2194042;80;21284;-84
2021/03/08 01:06:22;;;;;;;15.93;10.72;;;;;;;1.06;69.85;98685.91;2193961;80;21162;-83
2021/03/08 01:09:23;;;;;;;12.43;9.13;;;;;;;1.06;69.94;98688.97;2207986;80;21301;-84
2021/03/08 01:12:25;;;;;;;21.73;12.60;;;;;;;1.08;69.66;98687.08;2211381;80;21277;-83
2021/03/08 01:15:27;;;;;;;17.67;11.95;;;;;;;1.11;69.51;98685.09;2204634;80;21796;-83
2021/03/08 01:18:29;;;;;;;15.38;11.15;;;;;;;1.14;69.48;98683.55;2196513;80;21319;-84
2021/03/08 01:21:30;;;;;;;14.07;10.93;;;;;;;1.21;69.57;98684.38;2188302;80;21316;-84
2021/03/08 01:24:32;;;;;;;19.27;11.70;;;;;;;1.23;70.16;98681.20;2194789;80;21282;-84
2021/03/08 01:27:34;;;;;;;20.70;13.00;;;;;;;1.20;70.17;98678.87;2204743;80;21306;-85
2021/03/08 01:30:35;;;;;;;17.05;12.10;;;;;;;1.19;70.10;98676.77;2209848;80;21277;-86
2021/03/08 01:33:37;;;;;;;16.32;12.30;;;;;;;1.19;70.16;98677.20;2200614;80;21166;-83
2021/03/08 01:36:39;;;;;;;14.20;9.83;;;;;;;1.18;70.14;98671.70;2186479;80;21779;-85
2021/03/08 01:39:40;;;;;;;17.42;11.85;;;;;;;1.16;70.47;98669.24;2189400;80;21329;-84
2021/03/08 01:42:42;;;;;;;12.23;9.48;;;;;;;1.14;70.58;98671.13;2201423;80;21309;-86
2021/03/08 01:45:44;;;;;;;17.35;11.85;;;;;;;1.11;70.68;98672.67;2191107;80;21605;-85
2021/03/08 01:48:45;;;;;;;16.30;10.08;;;;;;;1.12;70.77;98667.39;2219672;80;21724;-84
2021/03/08 01:51:47;;;;;;;15.72;11.18;;;;;;;1.10;71.29;98664.12;2195298;80;21115;-85
2021/03/08 01:54:49;;;;;;;15.38;10.45;;;;;;;1.08;71.13;98669.84;2209939;80;21344;-85
2021/03/08 01:57:51;;;;;;;14.47;10.55;;;;;;;1.07;71.52;98664.34;2200866;80;21228;-85
2021/03/08 02:00:52;;;;;;;19.65;11.53;;;;;;;1.04;72.03;98658.61;2208080;80;21147;-86
2021/03/08 02:03:54;;;;;;;13.38;9.73;;;;;;;0.96;72.14;98661.79;2209491;80;21376;-85
2021/03/08 02:06:56;;;;;;;16.00;11.05;;;;;;;0.92;72.44;98657.01;2195237;80;21262;-85
2021/03/08 02:09:57;;;;;;;15.98;12.07;;;;;;;0.89;72.58;98659.80;2207394;80;21146;-85
2021/03/08 02:12:59;;;;;;;15.35;10.65;;;;;;;0.81;72.67;98661.22;2185993;80;21169;-87
2021/03/08 02:16:01;;;;;;;15.43;11.78;;;;;;;0.81;72.97;98657.82;2186047;80;21190;-85
2021/03/08 02:19:02;;;;;;;19.55;11.75;;;;;;;0.81;72.97;98656.06;2191861;80;21763;-86
2021/03/08 02:22:04;;;;;;;17.32;11.70;;;;;;;0.88;73.20;98658.17;2205982;80;21768;-86
2021/03/08 02:25:05;;;;;;;18.65;11.93;;;;;;;0.92;73.25;98660.88;2210381;80;21282;-85
2021/03/08 02:28:07;;;;;;;16.48;12.93;;;;;;;0.96;73.28;98655.81;2200797;80;21323;-85
2021/03/08 02:31:08;;;;;;;15.50;11.50;;;;;;;1.00;73.25;98650.28;2217578;80;21194;-85
2021/03/08 02:34:10;;;;;;;16.52;12.40;;;;;;;1.03;73.55;98654.41;2193052;80;21177;-86
2021/03/08 02:37:11;;;;;;;17.92;11.73;;;;;;;1.00;73.61;98659.78;2193698;80;21141;-85
2021/03/08 02:40:13;;;;;;;16.10;11.18;;;;;;;0.99;73.69;98659.44;2185816;80;21597;-86
2021/03/08 02:43:15;;;;;;;19.17;12.28;;;;;;;0.94;75.20;98660.28;2208333;80;21281;-86
2021/03/08 02:46:17;;;;;;;15.08;10.63;;;;;;;0.87;74.03;98658.64;2207215;80;21203;-86
2021/03/08 02:49:18;;;;;;;15.45;11.43;;;;;;;0.80;75.25;98659.58;2201706;80;21182;-86
2021/03/08 02:52:20;;;;;;;15.93;10.08;;;;;;;0.72;74.64;98659.35;2194034;80;21138;-86
2021/03/08 02:55:21;;;;;;;16.10;11.45;;;;;;;0.71;74.79;98656.89;2211768;80;21388;-85
2021/03/08 02:58:23;;;;;;;18.67;13.55;;;;;;;0.66;75.64;98653.88;2204423;80;21281;-86
2021/03/08 03:01:25;;;;;;;15.93;12.28;;;;;;;0.63;75.19;98658.77;2194958;80;21638;-86
2021/03/08 03:04:26;;;;;;;15.60;12.10;;;;;;;0.63;75.33;98656.66;2189243;80;21187;-85
2021/03/08 03:07:28;;;;;;;19.00;11.90;;;;;;;0.67;75.86;98664.53;2193711;80;21740;-86
2021/03/08 03:10:29;;;;;;;18.85;11.75;;;;;;;0.66;76.02;98662.42;2198687;80;21299;-84
2021/03/08 03:13:31;;;;;;;18.25;12.95;;;;;;;0.60;76.17;98672.38;2192704;80;21154;-85
2021/03/08 03:16:33;;;;;;;15.58;11.68;;;;;;;0.55;75.96;98672.74;2193123;80;21189;-86
2021/03/08 03:19:34;;;;;;;20.55;14.33;;;;;;;0.55;75.82;98680.00;2189349;80;21308;-86
2021/03/08 03:22:36;;;;;;;28.95;16.60;;;;;;;0.56;75.98;98678.23;2197663;80;21206;-85
2021/03/08 03:25:37;;;;;;;29.70;17.82;;;;;;;0.60;75.94;98680.92;2193662;80;21323;-86
2021/03/08 03:28:39;;;;;;;21.95;14.45;;;;;;;0.61;75.96;98679.16;2191559;80;21197;-86
2021/03/08 03:31:41;;;;;;;21.75;13.10;;;;;;;0.63;76.44;98681.97;2195031;80;21312;-85
2021/03/08 03:34:43;;;;;;;18.77;12.85;;;;;;;0.60;76.05;98683.97;2203882;80;21740;-85
2021/03/08 03:37:45;;;;;;;17.55;12.60;;;;;;;0.62;76.70;98679.51;2196895;80;21166;-84
2021/03/08 03:40:47;;;;;;;16.02;11.28;;;;;;;0.61;76.09;98689.47;2205307;80;21163;-85
2021/03/08 03:43:48;;;;;;;22.37;13.50;;;;;;;0.59;76.18;98692.64;2197218;80;21158;-85
2021/03/08 03:46:50;;;;;;;15.50;11.55;;;;;;;0.52;76.12;98681.50;2200855;80;21138;-85
2021/03/08 03:49:52;;;;;;;13.03;10.18;;;;;;;0.49;76.34;98688.66;2212485;80;21189;-84
2021/03/08 03:52:53;;;;;;;17.35;12.50;;;;;;;0.46;76.35;98684.56;2204176;80;21740;-85
2021/03/08 03:55:55;;;;;;;19.10;12.65;;;;;;;0.45;76.34;98696.25;2195168;80;21106;-84
2021/03/08 03:58:57;;;;;;;18.77;13.22;;;;;;;0.45;76.69;98691.09;2204978;80;21307;-85
2021/03/08 04:01:59;;;;;;;21.73;15.25;;;;;;;0.42;76.43;98691.34;2214397;80;21181;-84
2021/03/08 04:05:00;;;;;;;25.48;18.12;;;;;;;0.43;76.56;98692.50;2194162;80;21197;-87
2021/03/08 04:08:02;;;;;;;26.73;16.55;;;;;;;0.46;76.62;98699.20;2206965;80;21150;-85
2021/03/08 04:11:03;;;;;;;23.62;15.10;;;;;;;0.44;76.35;98701.87;2201467;80;21150;-86
2021/03/08 04:14:05;;;;;;;18.70;11.18;;;;;;;0.41;76.30;98704.69;2193927;80;21212;-86
2021/03/08 04:17:07;;;;;;;18.25;12.05;;;;;;;0.40;76.59;98697.90;2203115;80;21595;-85
2021/03/08 04:20:09;;;;;;;18.52;12.50;;;;;;;0.37;76.12;98698.61;2208824;80;21184;-87
2021/03/08 04:23:10;;;;;;;21.77;13.60;;;;;;;0.34;76.20;98704.79;2211460;80;21190;-85
2021/03/08 04:26:12;;;;;;;29.10;17.17;;;;;;;0.28;76.55;98704.80;2192188;80;21296;-86
2021/03/08 04:29:14;;;;;;;44.27;21.23;;;;;;;0.21;76.73;98714.38;2197140;80;21305;-85
2021/03/08 04:32:16;;;;;;;35.00;19.77;;;;;;;0.21;76.56;98722.11;2200936;80;21641;-86
2021/03/08 04:35:17;;;;;;;39.53;22.02;;;;;;;0.23;76.75;98727.48;2211228;80;21155;-85
2021/03/08 04:38:19;;;;;;;34.10;18.40;;;;;;;0.21;76.67;98722.92;2215332;80;21297;-85
2021/03/08 04:41:21;;;;;;;35.68;19.32;;;;;;;0.20;76.97;98729.02;2191359;80;21837;-85
2021/03/08 04:44:22;;;;;;;24.92;16.35;;;;;;;0.15;76.82;98722.08;2201613;80;21218;-87
2021/03/08 04:47:24;;;;;;;34.92;21.70;;;;;;;0.21;77.39;98723.39;2186002;80;21186;-85
2021/03/08 04:50:25;;;;;;;37.65;21.23;;;;;;;0.26;77.44;98727.72;2188551;80;21166;-85
2021/03/08 04:53:27;;;;;;;39.75;19.73;;;;;;;0.32;77.42;98725.17;2196345;80;21146;-86
2021/03/08 04:56:29;;;;;;;22.37;15.90;;;;;;;0.35;76.95;98732.66;2199558;80;21323;-86
2021/03/08 04:59:30;;;;;;;26.02;16.35;;;;;;;0.37;77.01;98728.23;2208890;80;21780;-86
2021/03/08 05:02:32;;;;;;;27.45;16.27;;;;;;;0.43;77.21;98732.44;2201369;80;21328;-85
2021/03/08 05:05:34;;;;;;;29.48;16.62;;;;;;;0.48;76.99;98726.95;2194280;80;21233;-84
2021/03/08 05:08:36;;;;;;;29.87;17.20;;;;;;;0.43;77.20;98744.50;2196397;80;21607;-87
2021/03/08 05:11:37;;;;;;;26.62;16.35;;;;;;;0.40;76.94;98740.88;2202839;80;21613;-84
2021/03/08 05:14:39;;;;;;;34.50;18.87;;;;;;;0.38;77.29;98746.14;2202493;80;21315;-85
2021/03/08 05:17:40;;;;;;;37.88;21.12;;;;;;;0.40;77.12;98749.42;2207191;80;21324;-84
2021/03/08 05:20:42;;;;;;;46.60;24.77;;;;;;;0.42;77.17;98756.56;2204360;80;21509;-86
2021/03/08 05:23:44;;;;;;;49.65;26.40;;;;;;;0.42;77.43;98749.30;2199225;80;21774;-86
2021/03/08 05:26:45;;;;;;;57.30;30.77;;;;;;;0.47;77.08;98761.38;2197161;80;21158;-82
2021/03/08 05:29:47;;;;;;;73.15;37.28;;;;;;;0.51;77.15;98759.73;2202546;80;21330;-86
2021/03/08 05:32:48;;;;;;;69.90;34.92;;;;;;;0.58;77.28;98763.97;2187266;80;21209;-84
2021/03/08 05:35:50;;;;;;;73.50;32.55;;;;;;;0.57;77.21;98755.89;2207245;80;21174;-86
2021/03/08 05:38:52;;;;;;;59.70;29.02;;;;;;;0.58;77.11;98768.30;2203681;80;21158;-85
2021/03/08 05:41:53;;;;;;;72.97;29.77;;;;;;;0.60;77.11;98763.85;2187292;81;21166;-86
2021/03/08 05:44:55;;;;;;;56.08;25.12;;;;;;;0.60;77.09;98772.41;2192949;80;21186;-88
2021/03/08 05:47:56;;;;;;;47.00;24.52;;;;;;;0.61;77.25;98778.38;2190687;80;21185;-87
2021/03/08 05:50:58;;;;;;;38.48;20.88;;;;;;;0.60;77.13;98779.31;2191557;80;21201;-84
2021/03/08 05:54:00;;;;;;;39.98;22.42;;;;;;;0.66;77.35;98784.02;2214984;80;21761;-87
2021/03/08 05:57:01;;;;;;;40.03;22.70;;;;;;;0.67;77.24;98786.94;2214799;80;21276;-84
2021/03/08 06:00:03;;;;;;;31.25;20.15;;;;;;;0.69;77.21;98789.75;2193783;80;21156;-86
2021/03/08 06:03:05;;;;;;;40.90;24.35;;;;;;;0.72;77.34;98795.95;2197553;80;21243;-85
2021/03/08 06:06:07;;;;;;;40.65;23.70;;;;;;;0.77;77.40;98794.33;2188529;80;21171;-82
2021/03/08 06:09:08;;;;;;;38.55;24.47;;;;;;;0.79;77.15;98801.00;2193606;80;21332;-85
2021/03/08 06:12:10;;;;;;;39.13;24.60;;;;;;;0.76;77.14;98796.56;2191351;80;21308;-85
2021/03/08 06:15:13;;;;;;;43.68;26.82;;;;;;;0.77;77.24;98808.51;2191526;80;21748;-87
2021/03/08 06:18:15;;;;;;;41.35;25.23;;;;;;;0.79;77.33;98811.78;2195036;80;21783;-82
2021/03/08 06:21:16;;;;;;;39.75;24.95;;;;;;;0.83;77.14;98821.77;2189753;80;21647;-81
2021/03/08 06:24:18;;;;;;;43.30;25.35;;;;;;;0.87;77.06;98831.37;2200405;80;21312;-82
2021/03/08 06:27:20;;;;;;;43.30;25.02;;;;;;;0.91;77.04;98832.77;2196456;80;21286;-84
2021/03/08 06:30:22;;;;;;;48.75;28.77;;;;;;;0.93;77.06;98841.70;2201004;80;21285;-86
2021/03/08 06:33:23;;;;;;;37.65;23.18;;;;;;;0.93;77.15;98842.52;2195362;80;21313;-83
2021/03/08 06:36:25;;;;;;;32.73;22.22;;;;;;;0.95;76.88;98841.11;2199324;80;21309;-89
2021/03/08 06:39:27;;;;;;;31.52;19.12;;;;;;;0.97;76.85;98846.97;2208737;80;21324;-86
2021/03/08 06:42:28;;;;;;;29.52;19.50;;;;;;;0.97;76.94;98850.36;2201144;80;21178;-91
2021/03/08 06:45:30;;;;;;;26.30;16.67;;;;;;;0.99;76.98;98858.80;2196142;80;21134;-88
2021/03/08 06:48:31;;;;;;;24.50;15.43;;;;;;;1.01;76.66;98859.53;2201602;80;21154;-90
2021/03/08 06:51:35;;;;;;;31.65;16.45;;;;;;;1.00;76.42;98860.44;2204088;80;21312;-87
2021/03/08 06:54:38;;;;;;;27.85;16.00;;;;;;;0.99;76.51;98862.66;2190416;80;21123;-89
2021/03/08 06:57:42;;;;;;;27.95;16.42;;;;;;;0.91;76.37;98873.20;2206332;80;21189;-87
2021/03/08 07:00:43;;;;;;;28.42;16.07;;;;;;;0.77;76.40;98877.64;2207030;80;21159;-86
2021/03/08 07:03:45;;;;;;;28.10;17.20;;;;;;;0.84;76.46;98882.70;2201230;80;21279;-85
2021/03/08 07:06:46;;;;;;;29.45;17.65;;;;;;;0.98;76.21;98882.95;2204587;80;21384;-85
2021/03/08 07:09:49;;;;;;;24.07;16.37;;;;;;;1.18;75.90;98886.59;2201396;80;21340;-87
2021/03/08 07:12:50;;;;;;;28.62;17.12;;;;;;;1.23;75.36;98888.37;2201612;80;21191;-86
2021/03/08 07:15:52;;;;;;;20.20;12.85;;;;;;;1.35;74.16;98894.35;2199234;80;21413;-87
2021/03/08 07:18:54;;;;;;;24.67;14.78;;;;;;;1.38;73.35;98899.30;2201564;80;21147;-86
2021/03/08 07:21:55;;;;;;;26.05;14.70;;;;;;;1.47;73.62;98905.52;2206916;80;21296;-86
2021/03/08 07:24:57;;;;;;;21.33;14.40;;;;;;;1.58;72.94;98896.48;2188506;80;21300;-87
2021/03/08 07:27:59;;;;;;;18.65;12.78;;;;;;;1.74;72.52;98904.69;2199552;80;21134;-87
2021/03/08 07:31:00;;;;;;;20.85;13.50;;;;;;;1.87;71.75;98907.95;2201419;80;21199;-87
2021/03/08 07:34:02;;;;;;;21.07;13.20;;;;;;;2.14;71.79;98910.13;2203945;80;21340;-87
2021/03/08 07:37:04;;;;;;;13.03;10.32;;;;;;;2.41;69.82;98903.23;2192183;80;21476;-86
2021/03/08 07:40:06;;;;;;;15.05;10.58;;;;;;;2.55;68.96;98904.69;2198533;80;21272;-87
2021/03/08 07:43:07;;;;;;;15.43;9.78;;;;;;;2.62;68.71;98908.42;2204176;80;21241;-87
2021/03/08 07:46:09;;;;;;;57.10;25.48;;;;;;;2.61;66.79;98911.14;2195941;80;21167;-86
2021/03/08 07:49:11;;;;;;;25.43;12.43;;;;;;;2.29;62.93;98910.68;2173911;80;22686;-87
2021/03/08 07:52:12;;;;;;;11.20;7.75;;;;;;;1.86;60.27;98920.98;2196081;80;21190;-87
2021/03/08 07:55:14;;;;;;;7.83;4.92;;;;;;;1.49;63.91;98922.99;2191604;80;21189;-87
2021/03/08 07:58:16;;;;;;;6.83;3.75;;;;;;;1.22;64.19;98931.06;2187300;80;21194;-87
2021/03/08 08:01:17;;;;;;;9.93;5.33;;;;;;;0.96;62.19;98939.44;2205550;80;21158;-87
2021/03/08 08:04:19;;;;;;;8.53;5.10;;;;;;;0.73;63.75;98944.98;2186047;80;21162;-87
2021/03/08 08:07:21;;;;;;;5.20;4.05;;;;;;;0.59;64.40;98943.42;2189674;80;21622;-85
2021/03/08 08:10:23;;;;;;;3.92;3.47;;;;;;;0.58;63.84;98952.55;2213336;80;21291;-84
2021/03/08 08:13:25;;;;;;;8.83;5.92;;;;;;;0.64;64.29;98945.20;2208115;80;21340;-88
2021/03/08 08:16:26;;;;;;;7.25;5.12;;;;;;;0.71;63.30;98939.94;2193270;80;21150;-84
2021/03/08 08:19:28;;;;;;;6.42;4.22;;;;;;;0.85;64.01;98951.37;2193734;80;21146;-85
2021/03/08 08:22:30;;;;;;;4.55;4.25;;;;;;;0.93;63.52;98948.23;2197080;80;21261;-87
2021/03/08 08:25:31;;;;;;;4.87;3.50;;;;;;;1.06;63.84;98950.72;2192634;80;21288;-85
2021/03/08 08:28:33;;;;;;;4.72;3.00;;;;;;;1.15;61.13;98951.33;2209408;80;21282;-84
2021/03/08 08:31:35;;;;;;;7.05;4.03;;;;;;;1.25;60.47;98956.62;2192720;80;21166;-85
2021/03/08 08:34:38;;;;;;;5.40;4.20;;;;;;;1.35;62.78;98953.70;2196367;80;21339;-84
2021/03/08 08:37:40;;;;;;;5.67;2.45;;;;;;;1.62;61.30;98958.53;2196139;80;21195;-87
2021/03/08 08:40:41;;;;;;;3.27;1.77;;;;;;;1.90;61.90;98957.23;2193904;80;21151;-84
2021/03/08 08:43:43;;;;;;;5.22;2.50;;;;;;;2.19;58.23;98962.70;2202971;80;21311;-84
2021/03/08 08:46:45;;;;;;;1.62;1.52;;;;;;;2.27;57.34;98968.09;2204678;80;21278;-89
2021/03/08 08:49:48;;;;;;;3.92;2.05;;;;;;;2.37;58.00;98969.01;2195830;80;21268;-87
2021/03/08 08:52:51;;;;;;;4.03;2.17;;;;;;;2.50;56.96;98959.36;2203136;80;21286;-82
2021/03/08 08:55:52;;;;;;;3.60;2.40;;;;;;;2.66;55.82;98963.31;2193035;80;21323;-89
2021/03/08 08:58:54;;;;;;;3.62;2.77;;;;;;;2.69;55.04;98956.11;2212206;80;21330;-92
2021/03/08 09:01:56;;;;;;;3.85;3.55;;;;;;;2.73;56.05;98962.66;2199857;80;21336;-86
2021/03/08 09:04:57;;;;;;;2.08;1.65;;;;;;;2.74;55.14;98959.61;2197996;80;21780;-88
2021/03/08 09:07:59;;;;;;;3.87;2.08;;;;;;;2.78;53.82;98967.01;2197364;80;21799;-86
2021/03/08 09:11:01;;;;;;;1.30;1.20;;;;;;;2.80;51.20;98970.75;2193343;80;21647;-89
2021/03/08 09:14:02;;;;;;;1.62;1.12;;;;;;;2.79;50.76;98974.30;2196523;80;21190;-89
2021/03/08 09:17:04;;;;;;;3.37;2.10;;;;;;;2.73;53.63;98972.19;2190761;80;21292;-90
2021/03/08 09:20:06;;;;;;;3.33;1.77;;;;;;;2.72;54.55;98971.37;2199621;80;21288;-88
2021/03/08 09:23:08;;;;;;;1.47;1.10;;;;;;;2.75;53.52;98976.31;2191037;80;21320;-91
2021/03/08 09:26:09;;;;;;;2.22;1.60;;;;;;;2.70;51.23;98981.02;2205199;80;21161;-92
2021/03/08 09:29:11;;;;;;;1.67;1.07;;;;;;;2.70;52.19;98987.96;2186356;80;21296;-91
2021/03/08 09:32:12;;;;;;;3.05;1.15;;;;;;;2.78;52.71;98976.53;2186449;80;21300;-91
2021/03/08 09:35:14;;;;;;;5.42;4.05;;;;;;;2.82;50.71;98988.26;2207624;80;21296;-87
2021/03/08 09:38:16;;;;;;;4.05;3.15;;;;;;;2.67;50.51;98983.86;2209766;80;21594;-86
2021/03/08 09:41:17;;;;;;;3.58;2.37;;;;;;;2.53;50.30;98992.70;2192843;80;21177;-89
2021/03/08 09:44:21;;;;;;;4.78;2.60;;;;;;;2.51;52.25;98988.61;2212655;80;21258;-89
2021/03/08 09:47:24;;;;;;;3.98;2.50;;;;;;;2.58;51.71;98993.65;2202518;80;21302;-92
2021/03/08 09:50:29;;;;;;;2.75;1.60;;;;;;;2.61;50.29;99008.09;2195572;80;21146;-87
2021/03/08 09:53:31;;;;;;;3.27;2.22;;;;;;;2.65;50.46;99007.73;2204470;80;21751;-91
2021/03/08 09:56:33;;;;;;;2.58;2.20;;;;;;;2.70;50.45;99004.30;2204888;80;21190;-92
2021/03/08 09:59:34;;;;;;;2.37;2.02;;;;;;;2.83;51.67;99005.41;2200151;80;21311;-91
2021/03/08 10:02:36;;;;;;;2.05;1.12;;;;;;;2.97;48.56;99009.49;2198605;80;21307;-90
2021/03/08 10:05:37;;;;;;;3.30;1.35;;;;;;;2.99;47.06;99014.06;2186216;80;21759;-90
2021/03/08 10:08:39;;;;;;;4.37;2.27;;;;;;;2.96;46.53;99010.44;2202566;80;21748;-89
2021/03/08 10:11:40;;;;;;;3.95;2.72;;;;;;;2.96;47.68;99006.09;2197338;80;21305;-87
2021/03/08 10:14:42;;;;;;;6.83;3.87;;;;;;;3.00;50.05;99010.52;2199449;80;21168;-89
2021/03/08 10:17:44;;;;;;;9.98;4.42;;;;;;;3.01;49.08;99005.70;2204543;80;21158;-91
2021/03/08 10:20:46;;;;;;;8.10;5.08;;;;;;;3.05;49.29;99007.11;2189865;80;21308;-90
2021/03/08 10:23:49;;;;;;;5.33;2.45;;;;;;;3.09;49.45;99017.06;2202016;80;21132;-91
2021/03/08 10:26:50;;;;;;;3.12;1.85;;;;;;;3.11;48.60;99007.91;2208726;80;21163;-91
2021/03/08 10:29:52;;;;;;;2.50;2.05;;;;;;;3.04;48.09;99020.52;2206838;80;21182;-90
2021/03/08 10:32:54;;;;;;;3.15;2.20;;;;;;;3.02;46.75;99014.66;2194453;80;21260;-91
2021/03/08 10:35:59;;;;;;;3.80;2.40;;;;;;;3.04;47.08;99021.81;2194266;80;21332;-88
2021/03/08 10:39:12;;;;;;;3.85;1.87;;;;;;;3.15;45.94;99023.52;2196580;80;21746;-89
2021/03/08 10:42:31;;;;;;;5.42;2.90;;;;;;;3.21;46.85;99021.73;2216028;80;21175;-90
2021/03/08 10:45:41;;;;;;;6.78;3.60;;;;;;;3.24;46.85;99021.95;2186304;80;21198;-89
2021/03/08 10:48:54;;;;;;;6.22;3.17;;;;;;;3.24;45.84;99021.95;2185953;80;21678;-90
2021/03/08 10:51:56;;;;;;;4.33;2.90;;;;;;;3.31;45.85;99027.80;2188958;80;21586;-91
2021/03/08 10:55:00;;;;;;;5.75;4.58;;;;;;;3.37;44.96;99032.92;2190077;80;21276;-91
2021/03/08 10:58:08;;;;;;;3.30;2.42;;;;;;;3.45;43.75;99036.19;2194346;80;21332;-90
2021/03/08 11:01:17;;;;;;;2.67;2.30;;;;;;;3.61;43.92;99019.26;2196023;80;21166;-88
2021/03/08 11:04:21;;;;;;;5.10;2.92;;;;;;;3.76;42.55;99028.83;2201808;80;21193;-88
2021/03/08 11:07:28;;;;;;;2.67;1.90;;;;;;;3.79;43.18;99020.78;2194915;80;21135;-91
2021/03/08 11:10:29;;;;;;;3.72;2.17;;;;;;;3.82;43.82;99021.81;2206270;80;21276;-90
2021/03/08 11:13:31;;;;;;;6.47;3.15;;;;;;;3.77;43.92;99031.75;2207755;80;21647;-89
2021/03/08 11:16:32;;;;;;;4.80;2.90;;;;;;;3.61;42.87;99021.84;2212512;80;21340;-91
2021/03/08 11:19:34;;;;;;;4.10;2.60;;;;;;;3.57;42.04;99036.48;2208766;80;21367;-89
2021/03/08 11:22:36;;;;;;;3.02;2.12;;;;;;;3.51;42.51;99034.39;2194091;80;21713;-88
2021/03/08 11:25:37;;;;;;;2.47;2.17;;;;;;;3.50;43.09;99040.52;2209050;80;21748;-88
2021/03/08 11:28:39;;;;;;;4.30;2.40;;;;;;;3.39;43.36;99033.65;2178680;80;21757;-90
2021/03/08 11:31:40;;;;;;;5.85;3.05;;;;;;;3.27;43.46;99035.45;2198176;80;21336;-90
2021/03/08 11:34:42;;;;;;;10.23;4.67;;;;;;;3.17;43.17;99037.62;2146343;82;21301;-89
2021/03/08 11:37:43;;;;;;;24.72;9.05;;;;;;;3.21;43.47;99038.56;2146746;81;21555;-88
2021/03/08 11:40:45;;;;;;;11.28;4.10;;;;;;;3.36;44.15;99028.23;2166830;80;21306;-90
2021/03/08 11:43:46;;;;;;;9.03;3.35;;;;;;;3.64;43.79;99025.47;2168233;81;21297;-90
2021/03/08 11:46:49;;;;;;;15.45;4.55;;;;;;;3.83;42.59;99012.27;2165797;81;21305;-89
2021/03/08 11:49:51;;;;;;;5.58;3.02;;;;;;;3.95;43.57;99018.55;2192818;81;21282;-90
2021/03/08 11:52:53;;;;;;;5.35;2.75;;;;;;;3.93;40.08;99030.81;2149554;81;21242;-91
2021/03/08 11:55:54;;;;;;;5.78;3.15;;;;;;;3.73;39.83;99034.23;2162804;81;21280;-90
2021/03/08 11:58:56;;;;;;;4.00;2.62;;;;;;;3.54;39.49;99028.95;2152660;81;21178;-90
2021/03/08 12:01:57;;;;;;;8.48;3.47;;;;;;;3.43;39.57;99025.96;2138402;82;21742;-90
2021/03/08 12:04:59;;;;;;;4.90;2.62;;;;;;;3.35;41.10;99029.65;2151414;82;21306;-90
2021/03/08 12:08:01;;;;;;;1.98;1.75;;;;;;;3.34;40.64;99039.19;2142390;82;21293;-90
2021/03/08 12:11:02;;;;;;;3.42;2.20;;;;;;;3.31;39.51;99048.50;2135303;82;21336;-91
2021/03/08 12:14:04;;;;;;;3.70;2.67;;;;;;;3.32;40.67;99043.67;2159651;80;21276;-90
2021/03/08 12:17:05;;;;;;;2.58;2.37;;;;;;;3.26;39.66;99048.05;2150366;81;21329;-92
2021/03/08 12:20:07;;;;;;;3.72;2.20;;;;;;;3.26;40.86;99040.76;2205239;80;21298;-90
2021/03/08 12:23:08;;;;;;;2.02;1.80;;;;;;;3.31;40.58;99048.98;2205312;80;21193;-90
2021/03/08 12:26:12;;;;;;;3.80;1.60;;;;;;;3.32;39.37;99054.50;2137960;82;21324;-90
2021/03/08 12:29:13;;;;;;;2.95;2.40;;;;;;;3.29;39.44;99057.31;2176686;80;21832;-90
2021/03/08 12:32:15;;;;;;;1.92;1.70;;;;;;;3.35;40.89;99048.59;2207959;80;21371;-91
2021/03/08 12:35:16;;;;;;;4.30;3.15;;;;;;;3.35;40.41;99054.24;2202537;80;21320;-90
2021/03/08 12:38:18;;;;;;;7.15;3.58;;;;;;;3.40;41.10;99049.52;2194065;80;21305;-90
2021/03/08 12:41:19;;;;;;;4.28;2.50;;;;;;;3.40;40.85;99043.05;2184090;80;21124;-90
2021/03/08 12:44:21;;;;;;;3.77;2.20;;;;;;;3.53;40.52;99048.03;2194415;80;21754;-90
2021/03/08 12:47:25;;;;;;;11.15;4.12;;;;;;;3.58;41.08;99044.12;2188401;80;21752;-90
2021/03/08 12:50:27;;;;;;;3.83;2.67;;;;;;;3.72;41.37;99046.84;2190699;80;21174;-91
2021/03/08 12:53:28;;;;;;;7.47;2.75;;;;;;;3.79;39.81;99045.87;2269367;77;21623;-89
2021/03/08 12:56:30;;;;;;;12.58;4.10;;;;;;;3.84;40.37;99047.58;2272908;77;21729;-90
2021/03/08 12:59:32;;;;;;;5.55;3.35;;;;;;;3.89;39.79;99042.84;2258970;78;21141;-90
2021/03/08 13:02:36;;;;;;;8.10;4.17;;;;;;;3.93;39.69;99037.74;2253924;78;21634;-91
2021/03/08 13:05:38;;;;;;;6.65;2.95;;;;;;;3.87;39.61;99049.46;2257130;78;21610;-89
2021/03/08 13:08:39;;;;;;;14.83;5.75;;;;;;;3.79;38.17;99053.16;2250969;78;21139;-88
2021/03/08 13:11:41;;;;;;;8.98;3.47;;;;;;;3.58;38.98;99059.66;2253135;78;21139;-90
2021/03/08 13:14:45;;;;;;;2.98;2.20;;;;;;;3.51;39.12;99059.81;2275418;77;21214;-89
2021/03/08 13:17:47;;;;;;;11.30;3.55;;;;;;;3.45;39.91;99056.89;2276947;77;21190;-91
2021/03/08 13:20:48;;;;;;;5.83;2.90;;;;;;;3.45;41.01;99062.08;2262430;78;21301;-92
2021/03/08 13:23:52;;;;;;;8.03;3.08;;;;;;;3.37;41.24;99070.46;2257446;78;21643;-91
2021/03/08 13:26:54;;;;;;;5.35;3.25;;;;;;;3.32;41.12;99076.03;2238244;78;21714;-92
2021/03/08 13:29:59;;;;;;;7.87;2.77;;;;;;;3.27;41.03;99087.21;2277700;77;21325;-92
2021/03/08 13:33:00;;;;;;;5.97;2.60;;;;;;;3.26;40.77;99079.11;2270079;78;21336;-91
2021/03/08 13:36:02;;;;;;;6.25;2.55;;;;;;;3.23;40.65;99088.42;2264670;78;21298;-91
2021/03/08 13:39:03;;;;;;;5.30;2.15;;;;;;;3.26;40.28;99076.98;2256039;78;21297;-91
2021/03/08 13:42:05;;;;;;;9.55;4.22;;;;;;;3.21;40.12;99079.97;2254179;78;21348;-90
2021/03/08 13:45:06;;;;;;;7.35;3.60;;;;;;;3.18;41.01;99091.84;2273876;78;21666;-90
2021/03/08 13:48:08;;;;;;;4.78;2.77;;;;;;;3.16;41.03;99090.33;2255514;78;21305;-90
2021/03/08 13:51:09;;;;;;;3.75;2.65;;;;;;;3.07;41.07;99093.17;2269658;78;21288;-90
2021/03/08 13:54:11;;;;;;;3.50;2.77;;;;;;;2.98;41.46;99102.49;2277963;77;21300;-90
2021/03/08 13:57:13;;;;;;;7.92;3.08;;;;;;;2.85;42.20;99101.83;2254969;78;21185;-90
2021/03/08 14:00:14;;;;;;;3.72;2.85;;;;;;;2.82;42.74;99100.28;2260540;78;21277;-89
2021/03/08 14:03:16;;;;;;;3.90;2.05;;;;;;;2.69;43.66;99104.80;2249055;78;21324;-88
2021/03/08 14:06:18;;;;;;;4.30;2.98;;;;;;;2.57;43.68;99105.77;2232708;78;21296;-89
2021/03/08 14:09:20;;;;;;;4.03;3.00;;;;;;;2.54;43.89;99095.16;2238894;78;21169;-89
2021/03/08 14:12:21;;;;;;;3.05;2.27;;;;;;;2.58;44.14;99098.83;2242051;78;21332;-89
2021/03/08 14:15:23;;;;;;;3.98;2.37;;;;;;;2.53;43.73;99105.16;2241423;79;21347;-90